createdAt,value
2019-02-20T00:01:37.785Z,14.17
2019-02-20T00:04:06.370Z,14.80
2019-02-20T00:06:34.954Z,15.20
2019-02-20T00:09:04.345Z,14.60
2019-02-20T00:11:32.804Z,15.17
2019-02-20T00:14:01.312Z,15.63
2019-02-20T00:16:29.768Z,15.70
2019-02-20T00:18:58.280Z,15.63
2019-02-20T00:21:26.761Z,15.70
2019-02-20T00:23:55.198Z,15.13
2019-02-20T00:26:23.647Z,17.07
2019-02-20T00:28:52.204Z,16.77
2019-02-20T00:31:20.609Z,16.40
2019-02-20T00:33:49.083Z,16.90
2019-02-20T00:36:17.594Z,17.07
2019-02-20T00:38:46.128Z,17.00
2019-02-20T00:41:14.581Z,14.50
2019-02-20T00:43:44.640Z,16.27
2019-02-20T00:46:14.746Z,16.57
2019-02-20T00:48:44.801Z,15.07
2019-02-20T00:51:14.880Z,17.67
2019-02-20T00:53:45.003Z,16.40
2019-02-20T00:56:13.471Z,18.57
2019-02-20T00:58:41.972Z,17.50
2019-02-20T01:01:10.440Z,18.37
2019-02-20T01:03:38.883Z,18.03
2019-02-20T01:06:07.417Z,18.60
2019-02-20T01:08:35.889Z,17.73
2019-02-20T01:11:04.372Z,18.80
2019-02-20T01:13:32.931Z,18.80
2019-02-20T01:16:01.537Z,19.57
2019-02-20T01:18:29.946Z,18.40
2019-02-20T01:20:58.502Z,20.70
2019-02-20T01:23:27.011Z,20.07
2019-02-20T01:25:55.563Z,22.07
2019-02-20T01:28:24.055Z,19.73
2019-02-20T01:30:52.630Z,21.60
2019-02-20T01:33:21.083Z,21.37
2019-02-20T01:35:49.584Z,19.20
2019-02-20T01:38:18.044Z,20.43
2019-02-20T01:40:46.534Z,21.90
2019-02-20T01:43:14.995Z,21.67
2019-02-20T01:45:43.455Z,20.07
2019-02-20T01:48:11.989Z,19.83
2019-02-20T01:50:40.498Z,21.70
2019-02-20T01:53:10.747Z,21.17
2019-02-20T01:55:48.695Z,20.37
2019-02-20T01:58:20.164Z,21.80
2019-02-20T02:00:49.147Z,21.73
2019-02-20T02:03:18.032Z,22.90
2019-02-20T02:05:46.531Z,22.73
2019-02-20T02:08:14.991Z,20.33
2019-02-20T02:10:43.439Z,20.90
2019-02-20T02:13:11.935Z,24.57
2019-02-20T02:15:40.444Z,22.50
2019-02-20T02:18:08.923Z,21.73
2019-02-20T02:20:37.378Z,21.90
2019-02-20T02:23:05.898Z,21.10
2019-02-20T02:25:34.384Z,22.30
2019-02-20T02:28:02.879Z,21.97
2019-02-20T02:30:31.434Z,21.20
2019-02-20T02:33:00.118Z,20.50
2019-02-20T02:35:28.703Z,21.20
2019-02-20T02:37:57.174Z,21.97
2019-02-20T02:40:25.632Z,20.70
2019-02-20T02:42:54.145Z,22.33
2019-02-20T02:45:22.620Z,21.23
2019-02-20T02:47:51.056Z,19.00
2019-02-20T02:50:19.588Z,23.50
2019-02-20T02:52:48.024Z,21.07
2019-02-20T02:55:16.554Z,20.73
2019-02-20T02:57:45.089Z,21.20
2019-02-20T03:00:14.843Z,19.53
2019-02-20T03:02:43.325Z,19.00
2019-02-20T03:05:11.799Z,17.57
2019-02-20T03:07:40.265Z,15.70
2019-02-20T03:10:09.406Z,14.70
2019-02-20T03:12:37.910Z,14.33
2019-02-20T03:15:07.847Z,15.10
2019-02-20T03:17:36.316Z,13.40
2019-02-20T03:20:06.607Z,14.90
2019-02-20T03:22:35.071Z,13.97
2019-02-20T03:25:04.270Z,15.50
2019-02-20T03:27:32.746Z,14.80
2019-02-20T03:30:01.226Z,16.60
2019-02-20T03:32:29.758Z,15.27
2019-02-20T03:34:58.288Z,14.60
2019-02-20T03:37:26.780Z,15.90
2019-02-20T03:39:55.353Z,17.07
2019-02-20T03:42:23.937Z,17.03
2019-02-20T03:44:52.412Z,16.77
2019-02-20T03:47:21.002Z,18.53
2019-02-20T03:49:49.585Z,17.77
2019-02-20T03:52:18.479Z,17.60
2019-02-20T03:54:47.365Z,17.50
2019-02-20T03:57:16.256Z,17.07
2019-02-20T03:59:45.250Z,18.60
2019-02-20T04:02:14.245Z,16.73
2019-02-20T04:04:43.134Z,18.07
2019-02-20T04:07:12.270Z,17.80
2019-02-20T04:09:42.543Z,17.30
2019-02-20T04:12:11.546Z,17.87
2019-02-20T04:14:40.539Z,20.15
2019-02-20T04:17:09.423Z,19.93
2019-02-20T04:19:38.321Z,21.30
2019-02-20T04:22:07.211Z,21.60
2019-02-20T04:24:36.212Z,21.85
2019-02-20T04:27:05.197Z,22.00
2019-02-20T04:29:34.093Z,24.80
2019-02-20T04:32:02.979Z,24.20
2019-02-20T04:34:31.869Z,25.60
2019-02-20T04:37:00.763Z,26.27
2019-02-20T04:39:29.651Z,24.77
2019-02-20T04:41:58.645Z,24.63
2019-02-20T04:44:27.639Z,25.05
2019-02-20T04:46:56.635Z,24.82
2019-02-20T04:49:25.521Z,25.82
2019-02-20T04:51:54.411Z,28.87
2019-02-20T04:54:23.304Z,25.80
2019-02-20T04:56:52.192Z,26.87
2019-02-20T04:59:21.082Z,26.17
2019-02-20T05:01:49.975Z,25.77
2019-02-20T05:04:18.866Z,26.60
2019-02-20T05:06:47.857Z,26.62
2019-02-20T05:09:16.850Z,27.43
2019-02-20T05:11:45.743Z,27.50
2019-02-20T05:14:14.631Z,28.60
2019-02-20T05:16:43.529Z,29.85
2019-02-20T05:19:12.515Z,29.37
2019-02-20T05:21:41.509Z,31.55
2019-02-20T05:24:10.501Z,31.50
2019-02-20T05:26:39.403Z,32.42
2019-02-20T05:29:07.873Z,32.70
2019-02-20T05:31:36.311Z,30.82
2019-02-20T05:34:04.853Z,32.60
2019-02-20T05:36:33.829Z,32.63
2019-02-20T05:39:02.822Z,31.68
2019-02-20T05:41:31.711Z,30.85
2019-02-20T05:44:00.705Z,30.85
2019-02-20T05:46:29.596Z,30.65
2019-02-20T05:48:58.498Z,29.97
2019-02-20T05:51:27.482Z,29.07
2019-02-20T05:53:56.388Z,30.60
2019-02-20T05:56:25.672Z,30.35
2019-02-20T05:58:54.664Z,32.00
2019-02-20T06:01:23.555Z,41.10
2019-02-20T06:03:52.446Z,49.15
2019-02-20T06:06:21.335Z,50.48
2019-02-20T06:08:50.339Z,43.70
2019-02-20T06:11:19.322Z,39.98
2019-02-20T06:13:48.314Z,36.53
2019-02-20T06:16:17.208Z,37.08
2019-02-20T06:18:45.662Z,34.43
2019-02-20T06:21:16.239Z,32.00
2019-02-20T06:23:44.242Z,31.52
2019-02-20T06:26:12.752Z,30.75
2019-02-20T06:28:41.355Z,26.85
2019-02-20T06:31:09.858Z,29.77
2019-02-20T06:33:38.415Z,29.37
2019-02-20T06:36:06.910Z,26.57
2019-02-20T06:38:35.494Z,28.67
2019-02-20T06:41:03.943Z,27.17
2019-02-20T06:43:32.444Z,27.57
2019-02-20T06:46:00.893Z,28.33
2019-02-20T06:48:29.407Z,27.07
2019-02-20T06:50:58.397Z,28.10
2019-02-20T06:53:27.287Z,25.00
2019-02-20T06:55:56.178Z,25.97
2019-02-20T06:58:25.175Z,26.00
2019-02-20T07:00:54.057Z,26.47
2019-02-20T07:03:22.955Z,27.60
2019-02-20T07:05:54.307Z,26.67
2019-02-20T07:08:29.137Z,28.07
2019-02-20T07:11:33.150Z,28.40
2019-02-20T07:14:07.874Z,27.40
2019-02-20T07:17:18.850Z,27.20
2019-02-20T07:20:02.896Z,28.60
2019-02-20T07:22:37.317Z,29.30
2019-02-20T07:25:24.231Z,29.90
2019-02-20T07:28:02.132Z,28.57
2019-02-20T07:30:30.612Z,28.93
2019-02-20T07:32:59.061Z,27.40
2019-02-20T07:35:27.572Z,28.63
2019-02-20T07:37:56.035Z,26.73
2019-02-20T07:40:24.540Z,28.80
2019-02-20T07:42:52.981Z,30.03
2019-02-20T07:45:21.437Z,27.40
2019-02-20T07:47:49.981Z,27.40
2019-02-20T07:50:18.576Z,25.10
2019-02-20T07:52:47.148Z,29.20
2019-02-20T07:55:15.615Z,27.40
2019-02-20T07:57:44.213Z,25.37
2019-02-20T08:00:14.064Z,26.93
2019-02-20T08:02:42.527Z,25.00
2019-02-20T08:05:11.130Z,24.50
2019-02-20T08:07:39.634Z,26.33
2019-02-20T08:10:09.590Z,23.53
2019-02-20T08:12:38.071Z,22.40
2019-02-20T08:15:09.853Z,22.57
2019-02-20T08:17:38.822Z,21.53
2019-02-20T08:20:09.043Z,20.63
2019-02-20T08:22:37.487Z,17.70
2019-02-20T08:25:07.029Z,17.53
2019-02-20T08:27:36.022Z,16.40
2019-02-20T08:30:07.985Z,16.73
2019-02-20T08:32:36.876Z,16.60
2019-02-20T08:35:08.408Z,14.30
2019-02-20T08:37:37.321Z,14.87
2019-02-20T08:40:09.278Z,14.80
2019-02-20T08:42:38.277Z,14.13
2019-02-20T08:45:10.015Z,14.87
2019-02-20T08:47:38.925Z,14.67
2019-02-20T08:50:11.129Z,13.00
2019-02-20T08:52:40.085Z,11.27
2019-02-20T08:55:13.223Z,12.97
2019-02-20T08:57:42.169Z,11.17
2019-02-20T09:00:15.856Z,11.87
2019-02-20T09:02:44.760Z,11.67
2019-02-20T09:05:13.652Z,11.87
2019-02-20T09:07:42.644Z,13.23
2019-02-20T09:10:13.920Z,12.23
2019-02-20T09:12:42.775Z,11.93
2019-02-20T09:15:14.028Z,12.30
2019-02-20T09:17:43.024Z,12.17
2019-02-20T09:20:13.016Z,10.73
2019-02-20T09:22:41.929Z,11.40
2019-02-20T09:25:19.558Z,10.60
2019-02-20T09:27:42.782Z,12.10
2019-02-20T09:30:14.600Z,18.47
2019-02-20T09:32:43.535Z,12.87
2019-02-20T09:35:13.244Z,10.90
2019-02-20T09:37:42.135Z,8.60
2019-02-20T09:40:17.067Z,9.87
2019-02-20T09:42:51.592Z,19.47
2019-02-20T09:45:20.488Z,11.50
2019-02-20T09:47:49.475Z,8.90
2019-02-20T09:50:18.466Z,8.70
2019-02-20T09:52:52.429Z,9.37
2019-02-20T09:55:17.884Z,10.13
2019-02-20T09:57:46.777Z,9.93
2019-02-20T10:00:18.736Z,9.97
2019-02-20T10:02:47.733Z,10.33
2019-02-20T10:05:16.616Z,9.37
2019-02-20T10:07:45.516Z,9.27
2019-02-20T10:10:14.405Z,13.57
2019-02-20T10:12:43.397Z,11.90
2019-02-20T10:15:17.940Z,13.07
2019-02-20T10:17:46.915Z,11.17
2019-02-20T10:20:15.907Z,9.90
2019-02-20T10:22:44.796Z,10.00
2019-02-20T10:25:14.643Z,10.90
2019-02-20T10:27:43.531Z,10.53
2019-02-20T10:30:17.924Z,13.70
2019-02-20T10:32:46.916Z,11.73
2019-02-20T10:35:15.907Z,11.23
2019-02-20T10:37:44.797Z,10.30
2019-02-20T10:40:13.687Z,10.20
2019-02-20T10:42:42.580Z,10.87
2019-02-20T10:45:15.361Z,10.00
2019-02-20T10:47:44.354Z,11.97
2019-02-20T10:50:14.224Z,12.20
2019-02-20T10:52:43.159Z,9.97
2019-02-20T10:55:12.154Z,10.90
2019-02-20T10:57:41.149Z,10.60
2019-02-20T11:00:23.550Z,10.70
2019-02-20T11:02:45.385Z,11.30
2019-02-20T11:05:14.276Z,10.07
2019-02-20T11:07:43.266Z,12.30
2019-02-20T11:10:12.867Z,11.67
2019-02-20T11:12:41.761Z,12.13
2019-02-20T11:15:13.170Z,10.80
2019-02-20T11:17:42.201Z,12.27
2019-02-20T11:20:13.680Z,11.20
2019-02-20T11:22:42.962Z,11.90
2019-02-20T11:25:13.995Z,11.33
2019-02-20T11:27:42.889Z,10.57
2019-02-20T11:30:38.193Z,11.20
2019-02-20T11:33:07.043Z,10.77
2019-02-20T11:35:35.980Z,11.40
2019-02-20T11:38:04.870Z,10.20
2019-02-20T11:40:33.864Z,12.07
2019-02-20T11:43:02.754Z,10.30
2019-02-20T11:45:31.644Z,11.37
2019-02-20T11:48:00.532Z,10.63
2019-02-20T11:50:29.372Z,10.20
2019-02-20T11:52:58.317Z,9.60
2019-02-20T11:55:27.310Z,10.93
2019-02-20T11:58:00.632Z,10.97
2019-02-20T12:00:26.693Z,10.47
2019-02-20T12:02:55.621Z,11.90
2019-02-20T12:05:24.513Z,11.60
2019-02-20T12:07:53.390Z,11.20
2019-02-20T12:10:23.010Z,11.17
2019-02-20T12:12:51.901Z,10.23
2019-02-20T12:15:20.812Z,11.60
2019-02-20T12:17:49.785Z,11.70
2019-02-20T12:20:18.676Z,11.40
2019-02-20T12:22:48.390Z,11.70
2019-02-20T12:25:17.379Z,10.80
2019-02-20T12:27:46.270Z,13.47
2019-02-20T12:30:15.159Z,11.47
2019-02-20T12:32:44.667Z,12.70
2019-02-20T12:35:13.523Z,11.40
2019-02-20T12:37:42.446Z,12.93
2019-02-20T12:40:12.259Z,11.50
2019-02-20T12:42:41.971Z,11.23
2019-02-20T12:45:13.115Z,12.53
2019-02-20T12:47:42.111Z,11.10
2019-02-20T12:50:13.952Z,11.60
2019-02-20T12:52:42.858Z,12.87
2019-02-20T12:55:11.851Z,12.83
2019-02-20T12:57:40.741Z,12.47
2019-02-20T13:00:15.764Z,11.73
2019-02-20T13:02:44.667Z,11.23
2019-02-20T13:05:13.496Z,12.37
2019-02-20T13:07:42.448Z,10.97
2019-02-20T13:10:11.543Z,10.90
2019-02-20T13:12:40.405Z,10.20
2019-02-20T13:15:12.295Z,9.90
2019-02-20T13:17:41.184Z,11.30
2019-02-20T13:20:12.289Z,10.37
2019-02-20T13:22:41.936Z,10.10
2019-02-20T13:25:11.033Z,10.53
2019-02-20T13:27:40.320Z,11.27
2019-02-20T13:30:13.152Z,10.93
2019-02-20T13:32:42.108Z,12.60
2019-02-20T13:35:11.658Z,8.90
2019-02-20T13:37:40.606Z,10.40
2019-02-20T13:40:11.962Z,10.33
2019-02-20T13:42:40.948Z,10.37
2019-02-20T13:45:10.862Z,10.20
2019-02-20T13:47:40.430Z,9.80
2019-02-20T13:50:12.209Z,10.60
2019-02-20T13:52:42.127Z,9.80
2019-02-20T13:55:10.983Z,9.87
2019-02-20T13:57:39.924Z,10.03
2019-02-20T14:00:13.497Z,10.00
2019-02-20T14:02:42.512Z,11.00
2019-02-20T14:05:11.409Z,10.80
2019-02-20T14:07:40.710Z,9.60
2019-02-20T14:10:30.357Z,10.07
2019-02-20T14:12:59.277Z,9.80
2019-02-20T14:15:28.169Z,10.43
2019-02-20T14:17:57.161Z,10.20
2019-02-20T14:20:26.155Z,10.03
2019-02-20T14:22:55.045Z,10.20
2019-02-20T14:25:23.937Z,22.93
2019-02-20T14:27:52.857Z,14.07
2019-02-20T14:30:21.820Z,10.60
2019-02-20T14:32:50.714Z,10.17
2019-02-20T14:35:20.626Z,17.47
2019-02-20T14:37:49.623Z,13.90
2019-02-20T14:40:18.613Z,11.30
2019-02-20T14:42:47.503Z,12.87
2019-02-20T14:45:17.145Z,13.20
2019-02-20T14:47:45.996Z,11.10
2019-02-20T14:50:14.891Z,9.90
2019-02-20T14:52:43.787Z,13.50
2019-02-20T14:55:12.773Z,14.07
2019-02-20T14:57:41.771Z,11.90
2019-02-20T15:00:16.476Z,10.40
2019-02-20T15:02:45.389Z,12.60
2019-02-20T15:05:14.320Z,11.27
2019-02-20T15:07:43.887Z,12.23
2019-02-20T15:10:12.777Z,11.00
2019-02-20T15:12:41.644Z,11.70
2019-02-20T15:15:14.552Z,11.20
2019-02-20T15:17:43.445Z,11.50
2019-02-20T15:20:12.334Z,10.67
2019-02-20T15:22:41.328Z,11.23
2019-02-20T15:25:11.142Z,11.17
2019-02-20T15:27:40.029Z,10.93
2019-02-20T15:30:12.444Z,10.83
2019-02-20T15:32:42.105Z,12.33
2019-02-20T15:35:11.003Z,11.60
2019-02-20T15:37:39.996Z,12.00
2019-02-20T15:40:11.245Z,11.87
2019-02-20T15:42:40.238Z,13.40
2019-02-20T15:45:11.917Z,11.60
2019-02-20T15:47:40.884Z,11.23
2019-02-20T15:50:15.216Z,12.97
2019-02-20T15:52:44.088Z,12.80
2019-02-20T15:55:14.332Z,12.60
2019-02-20T15:57:43.309Z,12.47
2019-02-20T16:00:16.501Z,12.07
2019-02-20T16:02:45.494Z,11.33
2019-02-20T16:05:15.413Z,11.67
2019-02-20T16:07:44.297Z,12.07
2019-02-20T16:10:13.188Z,11.73
2019-02-20T16:12:43.153Z,12.60
2019-02-20T16:15:14.725Z,12.67
2019-02-20T16:17:44.922Z,11.37
2019-02-20T16:20:15.203Z,11.40
2019-02-20T16:22:44.085Z,12.50
2019-02-20T16:25:17.080Z,11.80
2019-02-20T16:27:47.603Z,12.07
2019-02-20T16:30:16.501Z,12.47
2019-02-20T16:32:44.972Z,12.53
2019-02-20T16:35:14.426Z,12.80
2019-02-20T16:37:42.881Z,12.40
2019-02-20T16:40:13.072Z,11.27
2019-02-20T16:42:41.539Z,11.73
2019-02-20T16:45:23.375Z,12.07
2019-02-20T16:47:52.729Z,12.40
2019-02-20T16:50:21.177Z,13.30
2019-02-20T16:52:49.787Z,14.80
2019-02-20T16:55:19.738Z,14.60
2019-02-20T16:57:56.382Z,15.13
2019-02-20T17:00:21.979Z,15.43
2019-02-20T17:02:50.836Z,15.90
2019-02-20T17:05:19.401Z,18.00
2019-02-20T17:07:47.903Z,17.23
2019-02-20T17:10:18.243Z,15.07
2019-02-20T17:12:46.792Z,14.70
2019-02-20T17:15:15.691Z,15.40
2019-02-20T17:17:44.158Z,15.30
2019-02-20T17:20:14.079Z,16.60
2019-02-20T17:22:43.481Z,19.97
2019-02-20T17:25:12.985Z,18.93
2019-02-20T17:27:41.433Z,16.40
2019-02-20T17:30:11.387Z,16.23
2019-02-20T17:32:39.852Z,16.50
2019-02-20T17:35:10.199Z,15.83
2019-02-20T17:37:38.771Z,18.20
2019-02-20T17:40:08.856Z,17.93
2019-02-20T17:42:37.306Z,16.90
2019-02-20T17:45:07.276Z,17.47
2019-02-20T17:47:35.771Z,18.47
2019-02-20T17:50:24.528Z,16.97
2019-02-20T17:52:53.044Z,18.67
2019-02-20T17:55:21.691Z,19.13
2019-02-20T17:57:50.200Z,18.50
2019-02-20T18:00:20.926Z,18.73
2019-02-20T18:02:49.486Z,17.93
2019-02-20T18:05:17.982Z,18.53
2019-02-20T18:07:49.638Z,18.87
2019-02-20T18:10:16.575Z,19.77
2019-02-20T18:12:45.152Z,19.67
2019-02-20T18:15:14.157Z,19.00
2019-02-20T18:17:42.935Z,20.77
2019-02-20T18:20:12.194Z,19.00
2019-02-20T18:22:40.828Z,21.67
2019-02-20T18:25:10.157Z,20.87
2019-02-20T18:27:38.708Z,20.90
2019-02-20T18:30:08.830Z,21.73
2019-02-20T18:32:37.258Z,21.60
2019-02-20T18:35:26.473Z,20.60
2019-02-20T18:37:55.300Z,19.90
2019-02-20T18:40:23.845Z,21.53
2019-02-20T18:42:52.363Z,24.27
2019-02-20T18:45:21.023Z,21.60
2019-02-20T18:47:49.463Z,22.50
2019-02-20T18:50:17.970Z,23.00
2019-02-20T18:52:46.523Z,21.93
2019-02-20T18:55:14.979Z,23.17
2019-02-20T18:57:43.487Z,22.20
2019-02-20T19:00:13.436Z,21.53
2019-02-20T19:02:42.033Z,23.03
2019-02-20T19:05:11.553Z,23.87
2019-02-20T19:07:40.015Z,22.40
2019-02-20T19:10:13.082Z,24.07
2019-02-20T19:12:43.028Z,21.93
2019-02-20T19:15:12.956Z,21.80
2019-02-20T19:17:45.741Z,21.87
2019-02-20T19:20:16.251Z,24.63
2019-02-20T19:22:55.164Z,22.50
2019-02-20T19:25:34.548Z,22.70
2019-02-20T19:28:04.706Z,22.10
2019-02-20T19:30:44.016Z,20.90
2019-02-20T19:33:14.791Z,21.20
2019-02-20T19:35:44.765Z,21.57
2019-02-20T19:38:27.097Z,21.20
2019-02-20T19:40:57.138Z,20.47
2019-02-20T19:43:39.265Z,21.10
2019-02-20T19:46:21.386Z,21.70
2019-02-20T19:48:51.478Z,23.57
2019-02-20T19:51:39.697Z,22.67
2019-02-20T19:54:12.456Z,21.07
2019-02-20T19:56:44.164Z,20.57
2019-02-20T19:59:32.524Z,21.50
2019-02-20T20:02:05.443Z,21.23
2019-02-20T20:04:35.502Z,21.23
2019-02-20T20:07:08.593Z,20.50
2019-02-20T20:09:38.886Z,22.70
2019-02-20T20:12:21.839Z,22.03
2019-02-20T20:14:52.251Z,21.10
2019-02-20T20:17:41.098Z,20.37
2019-02-20T20:20:14.073Z,20.10
2019-02-20T20:23:09.158Z,20.30
2019-02-20T20:25:42.168Z,18.87
2019-02-20T20:28:17.952Z,21.63
2019-02-20T20:30:50.953Z,18.93
2019-02-20T20:33:24.518Z,19.90
2019-02-20T20:36:00.289Z,21.10
2019-02-20T20:38:36.271Z,19.80
2019-02-20T20:41:15.256Z,19.40
2019-02-20T20:43:48.038Z,17.30
2019-02-20T20:46:18.065Z,18.67
2019-02-20T20:48:48.071Z,17.93
2019-02-20T20:51:17.980Z,17.33
2019-02-20T20:53:56.187Z,17.60
2019-02-20T20:56:44.047Z,17.40
2019-02-20T20:59:17.549Z,16.00
2019-02-20T21:01:45.596Z,17.50
2019-02-20T21:04:21.664Z,17.40
2019-02-20T21:06:54.428Z,17.30
2019-02-20T21:09:24.360Z,17.10
2019-02-20T21:11:57.399Z,18.10
2019-02-20T21:14:27.321Z,17.47
2019-02-20T21:17:03.258Z,16.30
2019-02-20T21:19:42.345Z,17.60
2019-02-20T21:22:12.308Z,16.53
2019-02-20T21:24:55.520Z,17.80
2019-02-20T21:27:32.983Z,16.93
2019-02-20T21:30:09.076Z,17.75
2019-02-20T21:32:39.434Z,17.60
2019-02-20T21:35:13.066Z,17.60
2019-02-20T21:37:45.729Z,17.30
2019-02-20T21:40:15.762Z,16.63
2019-02-20T21:43:02.676Z,16.37
2019-02-20T21:45:39.762Z,18.80
2019-02-20T21:48:16.670Z,18.07
2019-02-20T21:50:55.799Z,16.37
2019-02-20T21:53:44.180Z,16.40
2019-02-20T21:56:14.132Z,18.07
2019-02-20T21:58:59.416Z,17.80
2019-02-20T22:01:34.320Z,17.13
2019-02-20T22:04:19.105Z,18.00
2019-02-20T22:07:04.173Z,17.93
2019-02-20T22:09:36.918Z,18.60
2019-02-20T22:12:09.937Z,18.37
2019-02-20T22:14:39.856Z,18.10
2019-02-20T22:17:16.020Z,20.10
2019-02-20T22:19:45.974Z,20.03
2019-02-20T22:22:21.676Z,21.23
2019-02-20T22:24:52.720Z,20.33
2019-02-20T22:27:23.323Z,20.50
2019-02-20T22:29:59.621Z,21.80
2019-02-20T22:32:35.584Z,19.43
2019-02-20T22:35:08.631Z,23.27
2019-02-20T22:37:41.563Z,22.27
2019-02-20T22:40:27.951Z,19.70
2019-02-20T22:43:10.051Z,22.23
2019-02-20T22:45:58.193Z,21.77
2019-02-20T22:48:45.044Z,21.07
2019-02-20T22:51:18.196Z,24.10
2019-02-20T22:53:54.152Z,24.37
2019-02-20T22:56:36.766Z,21.93
2019-02-20T22:59:09.452Z,24.45
2019-02-20T23:01:39.463Z,23.80
2019-02-20T23:04:26.069Z,23.87
2019-02-20T23:06:56.085Z,25.17
2019-02-20T23:09:41.111Z,24.50
2019-02-20T23:12:27.654Z,25.20
2019-02-20T23:14:58.776Z,26.65
2019-02-20T23:17:28.508Z,27.13
2019-02-20T23:19:57.970Z,27.55
2019-02-20T23:22:27.071Z,26.40
2019-02-20T23:24:55.698Z,27.90
2019-02-20T23:27:24.152Z,27.50
2019-02-20T23:29:52.607Z,26.50
2019-02-20T23:32:21.102Z,26.93
2019-02-20T23:34:49.556Z,27.30
2019-02-20T23:37:18.017Z,27.47
2019-02-20T23:39:46.521Z,27.77
2019-02-20T23:42:15.065Z,28.50
2019-02-20T23:44:43.535Z,27.80
2019-02-20T23:47:12.031Z,28.80
2019-02-20T23:49:40.508Z,28.53
2019-02-20T23:52:08.955Z,27.85
2019-02-20T23:54:37.471Z,28.92
2019-02-20T23:57:05.925Z,28.00
2019-02-20T23:59:34.384Z,27.70
